Time;durP1;ratioP1;P1;durP2;ratioP2;P2;SDS_P1;SDS_P2;PMS_P1;PMS_P2;Temp;Humidity;BMP_temperature;BMP_pressure;BME280_temperature;BME280_humidity;BME280_pressure;Samples;Min_cycle;Max_cycle;Signal;HPM_P1;HPM_P2
2022/05/10 07:08:20;;;;;;;7.45;6.35;;;;;;;;;;12811963;22;1426966;-82
2022/05/10 07:13:23;;;;;;;8.88;6.15;;;;;;;;;;12830933;23;20055;-79
2022/05/10 07:18:39;;;;;;;8.18;6.45;;;;;;;;;;12813455;23;20027;-79
2022/05/10 07:23:40;;;;;;;6.80;6.10;;;;;;;;;;12797340;23;20030;-79
2022/05/10 07:28:42;;;;;;;11.15;7.18;;;;;;;;;;12856629;23;20024;-81
2022/05/10 07:33:43;;;;;;;18.85;10.55;;;;;;;;;;12824874;23;19989;-80
2022/05/10 07:38:48;;;;;;;8.23;6.30;;;;;;;;;;12786584;23;20013;-79
2022/05/10 07:43:50;;;;;;;6.38;5.78;;;;;;;;;;12782487;23;20445;-79
2022/05/10 07:48:52;;;;;;;8.50;6.78;;;;;;;;;;12779771;23;20381;-80
2022/05/10 07:53:53;;;;;;;7.15;6.45;;;;;;;;;;12789427;23;20012;-79
2022/05/10 07:58:54;;;;;;;7.20;5.90;;;;;;;;;;12796074;23;20390;-80
2022/05/10 08:03:57;;;;;;;7.38;5.40;;;;;;;;;;12784494;23;20012;-80
2022/05/10 08:08:58;;;;;;;8.25;6.00;;;;;;;;;;12793584;23;20013;-79
2022/05/10 08:13:59;;;;;;;9.25;5.82;;;;;;;;;;12794662;23;20001;-78
2022/05/10 08:19:00;;;;;;;7.65;5.55;;;;;;;;;;12823729;23;20039;-78
2022/05/10 08:24:09;;;;;;;7.20;5.53;;;;;;;;;;12836715;23;20009;-81
2022/05/10 08:29:10;;;;;;;5.95;5.00;;;;;;;;;;12843260;23;20020;-80
2022/05/10 08:34:19;;;;;;;6.88;5.50;;;;;;;;;;12817446;23;20008;-82
2022/05/10 08:39:27;;;;;;;8.05;5.50;;;;;;;;;;12812020;23;20084;-81
2022/05/10 08:44:38;;;;;;;5.75;4.93;;;;;;;;;;12815059;23;20039;-84
2022/05/10 08:49:39;;;;;;;5.88;4.55;;;;;;;;;;12816048;23;20009;-83
2022/05/10 08:54:42;;;;;;;6.78;4.78;;;;;;;;;;12788653;23;20005;-83
2022/05/10 08:59:53;;;;;;;11.98;7.55;;;;;;;;;;12788768;23;20009;-79
2022/05/10 09:05:05;;;;;;;6.38;4.60;;;;;;;;;;12766443;23;20020;-84
2022/05/10 09:10:34;;;;;;;10.68;5.15;;;;;;;;;;12789822;23;20013;-83
2022/05/10 09:15:37;;;;;;;6.88;4.60;;;;;;;;;;12782398;23;20025;-79
2022/05/10 09:20:41;;;;;;;7.22;4.25;;;;;;;;;;12794824;23;20016;-79
2022/05/10 09:25:45;;;;;;;5.38;4.88;;;;;;;;;;12785754;23;20005;-79
2022/05/10 09:36:06;;;;;;;;;;;;;;;;;;12808881;23;20012;-79
2022/05/10 09:41:22;;;;;;;4.95;4.32;;;;;;;;;;12808168;23;20331;-79
2022/05/10 09:46:29;;;;;;;6.78;4.20;;;;;;;;;;12781636;23;20041;-80
2022/05/10 09:51:41;;;;;;;6.95;4.43;;;;;;;;;;12780813;23;20008;-84
2022/05/10 09:56:44;;;;;;;6.68;4.18;;;;;;;;;;12780102;23;20001;-84
2022/05/10 10:01:49;;;;;;;5.72;3.80;;;;;;;;;;12782265;23;20005;-85
2022/05/10 10:07:10;;;;;;;6.75;4.28;;;;;;;;;;12756722;23;20428;-84
2022/05/10 10:12:32;;;;;;;6.25;3.92;;;;;;;;;;12784303;23;20016;-84
2022/05/10 10:17:37;;;;;;;5.57;3.65;;;;;;;;;;12761858;23;20024;-85
2022/05/10 10:22:40;;;;;;;8.23;6.55;;;;;;;;;;12784898;23;20382;-85
2022/05/10 10:27:42;;;;;;;6.50;4.72;;;;;;;;;;12783918;23;20008;-86
2022/05/10 10:32:45;;;;;;;10.65;4.78;;;;;;;;;;12784065;23;20009;-86
2022/05/10 10:37:52;;;;;;;7.50;4.90;;;;;;;;;;12781574;23;20001;-83
2022/05/10 10:43:29;;;;;;;5.80;5.13;;;;;;;;;;12809643;23;20001;-85
2022/05/10 10:48:38;;;;;;;8.13;5.68;;;;;;;;;;12721785;23;20009;-84
2022/05/10 10:53:39;;;;;;;7.07;5.47;;;;;;;;;;12785871;23;19997;-84
2022/05/10 10:58:40;;;;;;;5.20;4.53;;;;;;;;;;12785847;23;20017;-84
2022/05/10 11:04:08;;;;;;;5.70;4.88;;;;;;;;;;12783024;23;20064;-84
2022/05/10 11:09:15;;;;;;;8.73;5.38;;;;;;;;;;12799201;23;20013;-83
2022/05/10 11:14:39;;;;;;;5.95;4.88;;;;;;;;;;12784541;23;20013;-84
2022/05/10 11:19:53;;;;;;;6.63;4.35;;;;;;;;;;12778650;23;20602;-85
2022/05/10 11:25:14;;;;;;;6.25;4.30;;;;;;;;;;12782235;23;20068;-86
2022/05/10 11:30:22;;;;;;;4.35;3.90;;;;;;;;;;12805638;23;20041;-85
2022/05/10 11:35:29;;;;;;;11.90;10.03;;;;;;;;;;12805803;23;20048;-85
2022/05/10 11:40:44;;;;;;;7.00;4.25;;;;;;;;;;12782049;23;20112;-86
2022/05/10 11:46:03;;;;;;;7.95;4.20;;;;;;;;;;12780785;23;20092;-85
2022/05/10 11:51:38;;;;;;;5.30;4.77;;;;;;;;;;12779823;23;20059;-84
2022/05/10 11:56:56;;;;;;;7.72;4.35;;;;;;;;;;12784307;23;20005;-87
2022/05/10 12:02:26;;;;;;;6.55;4.60;;;;;;;;;;12781393;23;20001;-85
2022/05/10 12:07:52;;;;;;;5.13;4.45;;;;;;;;;;12804975;23;20100;-86
2022/05/10 12:13:13;;;;;;;6.88;4.60;;;;;;;;;;12785715;23;20017;-86
2022/05/10 12:24:05;;;;;;;5.85;4.05;;;;;;;;;;12806781;23;20485;-87
2022/05/10 12:29:35;;;;;;;5.90;4.18;;;;;;;;;;12805835;23;20011;-87
2022/05/10 12:34:39;;;;;;;4.47;4.07;;;;;;;;;;12788099;23;20016;-86
2022/05/10 12:39:40;;;;;;;5.25;4.22;;;;;;;;;;12781795;23;20135;-86
2022/05/10 12:44:55;;;;;;;5.82;4.40;;;;;;;;;;12789682;23;20089;-87
2022/05/10 12:49:59;;;;;;;5.32;4.80;;;;;;;;;;12814350;23;20020;-86
2022/05/10 12:55:03;;;;;;;4.82;4.32;;;;;;;;;;12812538;23;20041;-85
2022/05/10 13:00:07;;;;;;;6.38;4.53;;;;;;;;;;12827662;23;20005;-80
2022/05/10 13:05:14;;;;;;;5.63;4.07;;;;;;;;;;12829267;23;20028;-81
2022/05/10 13:10:21;;;;;;;7.55;4.15;;;;;;;;;;12829554;23;20038;-81
2022/05/10 13:15:23;;;;;;;5.78;4.20;;;;;;;;;;12829246;23;19993;-82
2022/05/10 13:20:26;;;;;;;6.47;5.18;;;;;;;;;;12829495;23;20037;-86
2022/05/10 13:25:28;;;;;;;5.88;4.95;;;;;;;;;;12850434;23;20020;-85
2022/05/10 13:30:31;;;;;;;6.57;5.10;;;;;;;;;;12829932;23;20001;-86
2022/05/10 13:35:33;;;;;;;5.10;4.43;;;;;;;;;;12813053;23;20006;-82
2022/05/10 13:40:41;;;;;;;5.82;4.47;;;;;;;;;;12825350;23;20041;-82
2022/05/10 13:45:43;;;;;;;6.05;4.50;;;;;;;;;;12798669;23;20005;-82
2022/05/10 13:50:47;;;;;;;7.15;4.47;;;;;;;;;;12802695;23;20005;-82
2022/05/10 13:55:52;;;;;;;12.82;4.72;;;;;;;;;;12804647;23;20011;-82
2022/05/10 14:00:54;;;;;;;5.20;4.47;;;;;;;;;;12801203;23;20345;-82
2022/05/10 14:05:59;;;;;;;9.18;4.82;;;;;;;;;;12801869;23;20005;-82
2022/05/10 14:11:08;;;;;;;7.15;3.88;;;;;;;;;;12809211;23;20064;-81
2022/05/10 14:16:11;;;;;;;5.40;4.13;;;;;;;;;;12810330;23;20040;-80
2022/05/10 14:21:18;;;;;;;7.53;4.20;;;;;;;;;;12811079;23;20035;-81
2022/05/10 14:26:26;;;;;;;6.22;4.13;;;;;;;;;;12817465;23;20064;-80
2022/05/10 14:31:31;;;;;;;6.45;4.70;;;;;;;;;;12818227;23;20069;-83
2022/05/10 14:36:36;;;;;;;6.57;4.70;;;;;;;;;;12811213;23;19997;-85
2022/05/10 14:41:41;;;;;;;7.20;4.28;;;;;;;;;;12813000;23;20506;-83
2022/05/10 14:46:53;;;;;;;7.63;4.70;;;;;;;;;;12802393;23;20423;-83
2022/05/10 14:51:54;;;;;;;4.90;4.20;;;;;;;;;;12806168;23;20007;-85
2022/05/10 14:56:58;;;;;;;5.60;4.50;;;;;;;;;;12805804;23;20008;-83
2022/05/10 15:01:59;;;;;;;6.15;4.13;;;;;;;;;;12800298;23;20009;-82
2022/05/10 15:07:00;;;;;;;6.45;4.47;;;;;;;;;;12793570;23;20001;-83
2022/05/10 15:17:22;;;;;;;10.07;4.70;;;;;;;;;;12829237;23;20021;-81
2022/05/10 15:37:51;;;;;;;7.35;4.18;;;;;;;;;;12696892;23;20073;-81
2022/05/10 15:42:52;;;;;;;6.00;4.10;;;;;;;;;;12832909;23;20361;-81
2022/05/10 15:47:53;;;;;;;6.40;3.95;;;;;;;;;;12825228;23;20060;-82
2022/05/10 15:58:45;;;;;;;6.25;4.07;;;;;;;;;;12829888;23;20009;-83
2022/05/10 16:21:10;;;;;;;5.50;4.28;;;;;;;;;;12838169;23;20005;-80
